Time;durP1;ratioP1;P1;durP2;ratioP2;P2;SDS_P1;SDS_P2;PMS_P1;PMS_P2;Temp;Humidity;BMP_temperature;BMP_pressure;BME280_temperature;BME280_humidity;BME280_pressure;Samples;Min_cycle;Max_cycle;Signal;HPM_P1;HPM_P2
2021/08/21 00:01:55;;;;;;;1.70;1.00;;;;;;;24.63;45.60;98574.72;4976819;28;20212;-58
2021/08/21 00:04:21;;;;;;;0.90;0.90;;;;;;;24.62;45.58;98575.75;4976957;28;20272;-58
2021/08/21 00:06:49;;;;;;;1.20;1.10;;;;;;;24.64;45.62;98579.03;4976784;28;20200;-58
2021/08/21 00:09:15;;;;;;;1.33;1.00;;;;;;;24.64;45.34;98575.56;4977297;28;20224;-58
2021/08/21 00:11:42;;;;;;;1.20;1.10;;;;;;;24.64;45.54;98583.56;4976688;28;20216;-58
2021/08/21 00:14:08;;;;;;;0.97;0.93;;;;;;;24.64;45.57;98578.22;4976605;28;20204;-58
2021/08/21 00:16:35;;;;;;;1.30;1.20;;;;;;;24.63;45.48;98574.72;4976561;28;20215;-58
2021/08/21 00:19:03;;;;;;;0.93;0.90;;;;;;;24.66;45.57;98582.31;4976881;28;20263;-58
2021/08/21 00:21:29;;;;;;;1.10;1.10;;;;;;;24.69;45.23;98580.28;4976556;28;20239;-58
2021/08/21 00:23:56;;;;;;;1.20;1.07;;;;;;;24.67;45.50;98581.28;4976492;28;20195;-58
2021/08/21 00:26:22;;;;;;;0.97;0.97;;;;;;;24.65;45.34;98575.34;4974477;28;20243;-58
2021/08/21 00:28:49;;;;;;;1.10;1.10;;;;;;;24.64;45.56;98580.88;4975124;28;20195;-58
2021/08/21 00:31:15;;;;;;;1.70;1.00;;;;;;;24.65;45.57;98575.34;4976278;28;20212;-58
2021/08/21 00:33:44;;;;;;;1.00;1.00;;;;;;;24.65;45.71;98578.00;4975872;28;20200;-58
2021/08/21 00:36:10;;;;;;;1.30;1.20;;;;;;;24.72;45.14;98578.03;4976325;28;20212;-57
2021/08/21 00:38:37;;;;;;;0.93;0.93;;;;;;;24.68;45.40;98571.44;4976660;28;20190;-58
2021/08/21 00:41:05;;;;;;;1.20;1.10;;;;;;;24.65;45.47;98571.84;4976053;28;20262;-57
2021/08/21 00:43:35;;;;;;;0.97;0.97;;;;;;;24.66;45.34;98574.31;4976053;28;20247;-57
2021/08/21 00:46:03;;;;;;;1.00;1.00;;;;;;;24.64;45.31;98570.22;4976555;28;20196;-57
2021/08/21 00:48:30;;;;;;;0.90;0.90;;;;;;;24.62;45.59;98567.72;4974735;28;20209;-57
2021/08/21 00:51:01;;;;;;;0.93;0.93;;;;;;;24.61;45.61;98568.75;4975903;28;20702;-58
2021/08/21 00:53:32;;;;;;;1.00;1.00;;;;;;;24.61;45.49;98571.44;4974906;28;20667;-58
2021/08/21 00:56:00;;;;;;;1.10;1.10;;;;;;;24.63;45.53;98568.56;4974605;28;20291;-58
2021/08/21 00:58:29;;;;;;;1.00;1.00;;;;;;;24.61;45.58;98560.75;4974520;28;20295;-57
2021/08/21 01:00:56;;;;;;;0.83;0.83;;;;;;;24.58;45.66;98563.81;4974442;28;20220;-57
2021/08/21 01:03:23;;;;;;;1.07;0.93;;;;;;;24.62;45.63;98567.72;4975969;28;20197;-57
2021/08/21 01:05:50;;;;;;;1.40;1.07;;;;;;;24.62;45.49;98573.06;4974419;28;20227;-58
2021/08/21 01:08:17;;;;;;;1.00;1.00;;;;;;;24.61;45.54;98566.09;4974377;28;20238;-58
2021/08/21 01:11:01;;;;;;;1.13;0.90;;;;;;;24.53;45.68;98564.41;4974546;28;20227;-57
2021/08/21 01:13:31;;;;;;;1.20;1.10;;;;;;;24.50;45.75;98571.97;4974274;28;20204;-58
2021/08/21 01:15:58;;;;;;;1.70;0.90;;;;;;;24.50;45.57;98564.81;4975320;28;20594;-57
2021/08/21 01:18:25;;;;;;;1.00;1.00;;;;;;;24.46;45.74;98563.56;4974202;28;20282;-58
2021/08/21 01:20:52;;;;;;;1.43;1.10;;;;;;;24.48;45.71;98566.84;4974146;28;20703;-57
2021/08/21 01:23:22;;;;;;;1.20;1.10;;;;;;;24.49;45.72;98565.00;4974052;28;20200;-57
2021/08/21 01:25:55;;;;;;;0.93;0.93;;;;;;;24.48;45.87;98560.69;4974304;28;20195;-58
2021/08/21 01:28:24;;;;;;;1.10;1.00;;;;;;;24.49;45.83;98562.34;4973882;28;20251;-58
2021/08/21 01:31:22;;;;;;;1.20;1.10;;;;;;;24.51;45.77;98557.63;4973823;28;20290;-58
2021/08/21 01:33:49;;;;;;;0.97;0.97;;;;;;;24.46;45.94;98554.72;4975173;28;20619;-57
2021/08/21 01:36:16;;;;;;;1.20;1.10;;;;;;;24.49;45.64;98555.16;4973751;28;20196;-58
2021/08/21 01:39:05;;;;;;;0.93;0.93;;;;;;;24.49;45.66;98557.00;4974823;28;20302;-57
2021/08/21 01:41:42;;;;;;;0.93;0.93;;;;;;;24.48;45.89;98552.69;4973727;28;20215;-57
2021/08/21 01:44:17;;;;;;;1.13;1.00;;;;;;;24.51;45.62;98549.63;4973664;28;20231;-57
2021/08/21 01:46:48;;;;;;;1.03;1.00;;;;;;;24.50;45.55;98550.63;4973606;28;20748;-57
2021/08/21 01:49:18;;;;;;;1.23;1.13;;;;;;;24.50;45.61;98555.97;4973642;28;20646;-58
2021/08/21 01:51:48;;;;;;;1.20;1.10;;;;;;;24.49;45.82;98549.81;4973921;28;20219;-56
2021/08/21 01:54:25;;;;;;;1.47;1.00;;;;;;;24.47;45.61;98549.22;4973758;28;20235;-57
2021/08/21 01:56:55;;;;;;;1.10;1.00;;;;;;;24.48;45.73;98544.69;4973392;28;20216;-58
2021/08/21 02:00:00;;;;;;;1.27;1.03;;;;;;;24.49;45.61;98538.31;4973914;28;20338;-57
2021/08/21 02:02:48;;;;;;;0.90;0.90;;;;;;;24.45;45.75;98539.75;4973671;28;20208;-56
2021/08/21 02:05:19;;;;;;;0.90;0.90;;;;;;;24.47;45.62;98543.03;4973418;28;20195;-57
2021/08/21 02:07:46;;;;;;;1.10;1.00;;;;;;;24.47;45.65;98535.03;4975087;28;20180;-58
2021/08/21 02:10:13;;;;;;;1.30;1.20;;;;;;;24.47;45.59;98537.69;4973254;28;20196;-57
2021/08/21 02:12:40;;;;;;;0.87;0.87;;;;;;;24.46;45.57;98541.38;4973131;28;20255;-57
2021/08/21 02:15:12;;;;;;;1.57;1.00;;;;;;;24.48;45.64;98539.34;4974350;28;20702;-57
2021/08/21 02:17:43;;;;;;;1.10;1.00;;;;;;;24.51;45.70;98533.59;4973360;28;20219;-58
2021/08/21 02:20:29;;;;;;;0.90;0.90;;;;;;;24.49;45.50;98535.66;4973593;28;20278;-57
2021/08/21 02:22:57;;;;;;;1.00;1.00;;;;;;;24.51;45.58;98533.59;4973113;28;20199;-57
2021/08/21 02:25:23;;;;;;;0.80;0.80;;;;;;;24.50;45.58;98539.97;4973065;28;20203;-58
2021/08/21 02:27:58;;;;;;;1.00;1.00;;;;;;;24.54;45.42;98522.56;4972968;28;20192;-57
2021/08/21 02:30:26;;;;;;;1.03;1.00;;;;;;;24.53;45.40;98520.91;4972987;28;20646;-57
2021/08/21 02:32:52;;;;;;;1.43;1.03;;;;;;;24.49;45.31;98523.16;4972975;28;20200;-58
2021/08/21 02:35:19;;;;;;;0.90;0.90;;;;;;;24.48;45.59;98516.19;4972947;28;20208;-57
2021/08/21 02:37:46;;;;;;;1.03;0.93;;;;;;;24.54;45.33;98522.56;4972871;28;20223;-57
2021/08/21 02:40:13;;;;;;;1.10;1.00;;;;;;;24.55;45.56;98521.53;4974687;28;20234;-58
2021/08/21 02:42:40;;;;;;;1.00;1.00;;;;;;;24.57;45.29;98524.81;4988897;28;20220;-58
2021/08/21 02:45:07;;;;;;;1.67;0.83;;;;;;;24.55;45.50;98524.22;4974651;28;20211;-58
2021/08/21 02:47:34;;;;;;;1.10;1.10;;;;;;;24.49;45.60;98511.66;4973909;28;20188;-58
2021/08/21 02:50:00;;;;;;;0.70;0.70;;;;;;;24.49;45.59;98515.16;4975487;28;20279;-57
2021/08/21 02:52:27;;;;;;;1.20;1.10;;;;;;;24.49;45.43;98507.16;4978006;28;20208;-58
2021/08/21 02:54:53;;;;;;;1.67;1.00;;;;;;;24.49;45.55;98506.31;4976910;28;20733;-57
2021/08/21 02:57:20;;;;;;;1.20;1.10;;;;;;;24.49;45.71;98509.81;4976641;28;20303;-57
2021/08/21 02:59:48;;;;;;;0.90;0.90;;;;;;;24.48;45.58;98507.34;4976622;28;20548;-57
2021/08/21 03:02:15;;;;;;;0.90;0.90;;;;;;;24.45;45.61;98507.75;4976586;28;20279;-58
2021/08/21 03:04:46;;;;;;;1.00;1.00;;;;;;;24.43;45.53;98513.25;4977453;28;20606;-58
2021/08/21 03:07:18;;;;;;;0.90;0.90;;;;;;;24.42;45.64;98506.28;4976647;28;20203;-58
2021/08/21 03:09:51;;;;;;;1.20;1.10;;;;;;;24.31;45.95;98507.69;4976772;28;20540;-57
2021/08/21 03:12:23;;;;;;;1.03;1.03;;;;;;;24.36;45.83;98513.22;4976491;28;20211;-58
2021/08/21 03:14:52;;;;;;;1.17;1.10;;;;;;;24.36;45.76;98499.91;4976320;28;20203;-57
2021/08/21 03:17:19;;;;;;;1.00;1.00;;;;;;;24.34;45.73;98499.28;4978207;28;20774;-57
2021/08/21 03:19:45;;;;;;;1.13;1.03;;;;;;;24.35;45.67;98511.59;4976384;28;20188;-58
2021/08/21 03:22:12;;;;;;;1.00;1.00;;;;;;;24.35;45.76;98503.59;4976241;28;20302;-58
2021/08/21 03:24:41;;;;;;;0.93;0.93;;;;;;;24.33;45.74;98516.28;4976562;28;20254;-57
2021/08/21 03:27:09;;;;;;;0.90;0.90;;;;;;;24.37;45.78;98506.91;4976244;28;20198;-58
2021/08/21 03:29:37;;;;;;;0.90;0.90;;;;;;;24.33;45.81;98505.63;4976741;28;20195;-58
2021/08/21 03:32:06;;;;;;;0.90;0.90;;;;;;;24.35;45.80;98508.91;4976102;28;20275;-57
2021/08/21 03:34:34;;;;;;;0.80;0.80;;;;;;;24.36;45.66;98510.56;4992312;28;20570;-57
2021/08/21 03:37:02;;;;;;;1.00;1.00;;;;;;;24.33;45.83;98513.63;4975930;28;20306;-57
2021/08/21 03:39:31;;;;;;;0.90;0.90;;;;;;;24.32;45.61;98506.66;4992458;28;20559;-58
2021/08/21 03:41:58;;;;;;;0.90;0.90;;;;;;;24.33;45.81;98507.50;4975896;28;20226;-57
2021/08/21 03:44:25;;;;;;;1.40;1.10;;;;;;;24.34;45.63;98501.94;4992150;28;20196;-57
2021/08/21 03:46:51;;;;;;;0.90;0.90;;;;;;;24.31;45.72;98507.69;4975859;28;20215;-57
2021/08/21 03:49:21;;;;;;;1.00;1.00;;;;;;;24.33;45.71;98510.97;4975827;28;20692;-58
2021/08/21 03:51:48;;;;;;;0.93;0.93;;;;;;;24.29;45.96;98509.72;4975765;28;20222;-58
2021/08/21 03:54:17;;;;;;;0.80;0.80;;;;;;;24.28;45.86;98508.06;4975761;28;20200;-58
2021/08/21 03:56:43;;;;;;;1.00;1.00;;;;;;;24.30;45.81;98507.88;4975619;28;20662;-57
2021/08/21 03:59:10;;;;;;;0.90;0.90;;;;;;;24.30;45.79;98510.56;4975628;28;20191;-58
2021/08/21 04:01:45;;;;;;;0.90;0.90;;;;;;;24.31;45.84;98513.00;4975764;28;20581;-58
2021/08/21 04:04:24;;;;;;;1.00;1.00;;;;;;;24.31;45.70;98507.69;4975565;28;20192;-57
2021/08/21 04:06:50;;;;;;;1.23;1.00;;;;;;;24.29;45.70;98512.38;4975752;28;20635;-58
2021/08/21 04:09:21;;;;;;;1.10;1.00;;;;;;;24.27;45.78;98510.94;4960103;28;20196;-58
2021/08/21 04:11:54;;;;;;;1.20;1.10;;;;;;;24.28;45.77;98507.25;4975979;28;20211;-57
2021/08/21 04:14:21;;;;;;;0.80;0.80;;;;;;;24.27;45.86;98513.59;4975294;28;20614;-58
2021/08/21 04:16:48;;;;;;;1.20;1.10;;;;;;;24.29;45.80;98509.72;4975230;28;20200;-58
2021/08/21 04:19:17;;;;;;;1.20;1.10;;;;;;;24.28;45.69;98513.41;4975493;28;20207;-57
2021/08/21 04:21:45;;;;;;;1.07;1.07;;;;;;;24.30;45.62;98515.88;4975199;28;20223;-58
2021/08/21 04:24:24;;;;;;;1.00;0.90;;;;;;;24.32;45.68;98517.31;4975200;28;20689;-57
2021/08/21 04:26:56;;;;;;;1.03;1.00;;;;;;;24.31;45.66;98521.00;4975771;28;20239;-58
2021/08/21 04:29:24;;;;;;;1.07;0.90;;;;;;;24.31;45.81;98521.00;4975184;28;20254;-57
2021/08/21 04:31:51;;;;;;;1.33;1.10;;;;;;;24.28;45.82;98516.06;4974976;28;20223;-58
2021/08/21 04:34:18;;;;;;;1.23;0.93;;;;;;;24.25;45.93;98519.16;4975769;28;20290;-58
2021/08/21 04:36:45;;;;;;;1.27;1.03;;;;;;;24.25;45.75;98519.16;4975095;28;20224;-57
2021/08/21 04:39:15;;;;;;;1.00;1.00;;;;;;;24.28;45.81;98529.41;4975132;28;20215;-58
2021/08/21 04:41:43;;;;;;;1.00;1.00;;;;;;;24.27;45.89;98526.94;4975015;28;20243;-58
2021/08/21 04:44:10;;;;;;;1.03;1.00;;;;;;;24.27;45.87;98529.59;4974828;28;20794;-58
2021/08/21 04:46:37;;;;;;;1.27;1.20;;;;;;;24.28;45.76;98531.25;4990972;28;20196;-58
2021/08/21 04:49:04;;;;;;;1.30;1.20;;;;;;;24.32;45.62;98535.97;4974757;28;20307;-58
2021/08/21 04:51:32;;;;;;;0.90;0.90;;;;;;;24.35;45.51;98527.59;4974624;28;20694;-58
2021/08/21 04:54:01;;;;;;;1.30;1.20;;;;;;;24.34;45.65;98541.94;4974654;28;20319;-58
2021/08/21 04:56:28;;;;;;;1.03;1.00;;;;;;;24.31;45.73;98539.69;4990845;28;20283;-58
2021/08/21 04:59:13;;;;;;;1.03;1.03;;;;;;;24.30;45.59;98532.69;4976154;28;20602;-58
2021/08/21 05:01:40;;;;;;;0.97;0.97;;;;;;;24.31;45.67;98529.00;4974551;28;20242;-58
2021/08/21 05:04:07;;;;;;;1.30;1.20;;;;;;;24.27;45.64;98532.25;4990723;28;20204;-57
2021/08/21 05:06:36;;;;;;;1.10;1.00;;;;;;;24.31;45.46;98533.53;4974415;28;20231;-58
2021/08/21 05:09:03;;;;;;;1.20;1.10;;;;;;;24.23;45.76;98532.66;4990604;28;20200;-58
2021/08/21 05:11:29;;;;;;;1.00;1.00;;;;;;;24.24;45.72;98539.63;4990496;28;20220;-58
2021/08/21 05:13:56;;;;;;;1.30;1.20;;;;;;;24.23;45.79;98538.00;4973618;28;20287;-58
2021/08/21 05:16:23;;;;;;;0.97;0.97;;;;;;;24.25;45.73;98535.13;4974359;28;20207;-57
2021/08/21 05:21:57;;;;;;;1.20;1.10;;;;;;;24.24;45.68;98536.16;4974111;28;20223;-58
2021/08/21 05:24:24;;;;;;;1.60;1.03;;;;;;;24.23;45.77;98537.19;4990330;28;20207;-58
2021/08/21 05:26:51;;;;;;;0.90;0.90;;;;;;;24.24;45.84;98536.16;4990303;28;20251;-58
2021/08/21 05:29:18;;;;;;;0.90;0.90;;;;;;;24.22;45.83;98530.22;4974271;28;20534;-58
2021/08/21 05:31:45;;;;;;;1.17;1.07;;;;;;;24.24;45.67;98544.16;4973929;28;20228;-58
2021/08/21 05:34:12;;;;;;;0.90;0.90;;;;;;;24.24;45.62;98536.97;4975454;28;20211;-58
2021/08/21 05:36:39;;;;;;;1.07;1.00;;;;;;;24.22;45.73;98533.69;4975137;28;20681;-58
2021/08/21 05:39:08;;;;;;;0.93;0.93;;;;;;;24.20;45.67;98526.88;4974541;28;20219;-58
2021/08/21 05:41:35;;;;;;;1.30;1.20;;;;;;;24.19;45.82;98536.75;4975042;28;20216;-58
2021/08/21 05:44:02;;;;;;;1.33;1.23;;;;;;;24.20;45.69;98533.06;4973723;28;20195;-57
2021/08/21 05:46:28;;;;;;;1.73;1.10;;;;;;;24.20;45.86;98533.06;4975239;28;20184;-58
2021/08/21 05:48:55;;;;;;;1.10;1.10;;;;;;;24.20;45.81;98526.88;4974935;28;20184;-57
2021/08/21 05:51:21;;;;;;;1.20;1.10;;;;;;;24.23;45.62;98526.53;4973563;28;20290;-58
2021/08/21 05:53:48;;;;;;;1.17;1.17;;;;;;;24.22;45.61;98531.00;4974839;28;20192;-58
2021/08/21 05:56:14;;;;;;;1.40;1.30;;;;;;;24.22;45.61;98536.34;4974750;28;20200;-57
2021/08/21 05:58:41;;;;;;;1.30;1.20;;;;;;;24.22;45.79;98531.00;4974887;28;20609;-58
2021/08/21 06:01:07;;;;;;;1.40;1.30;;;;;;;24.21;45.83;98531.22;4973716;28;20615;-57
2021/08/21 06:03:34;;;;;;;1.20;1.10;;;;;;;24.22;45.63;98535.53;4974672;28;20199;-57
2021/08/21 06:06:01;;;;;;;1.13;1.13;;;;;;;24.22;45.77;98538.22;4974837;28;20301;-57
2021/08/21 06:08:27;;;;;;;1.00;1.00;;;;;;;24.20;45.82;98545.56;4973299;28;20223;-57
2021/08/21 06:10:57;;;;;;;1.17;1.10;;;;;;;24.21;45.84;98542.69;4973231;28;20215;-58
2021/08/21 06:13:25;;;;;;;1.23;1.13;;;;;;;24.21;45.83;98541.91;4973384;28;20250;-57
2021/08/21 06:15:51;;;;;;;1.63;1.23;;;;;;;24.20;45.66;98549.06;4974309;28;20611;-58
2021/08/21 06:18:18;;;;;;;1.30;1.20;;;;;;;24.21;45.79;98539.22;4974269;28;20694;-58
2021/08/21 06:20:44;;;;;;;1.50;1.40;;;;;;;24.21;45.80;98540.03;4974463;28;20216;-59
2021/08/21 06:23:11;;;;;;;1.20;1.10;;;;;;;24.28;45.88;98544.56;4974488;28;20199;-58
2021/08/21 06:25:37;;;;;;;1.53;1.20;;;;;;;24.32;45.63;98540.50;4973428;28;20659;-57
2021/08/21 06:28:04;;;;;;;1.70;1.60;;;;;;;24.31;45.74;98533.53;4974281;28;20200;-57
2021/08/21 06:30:31;;;;;;;3.90;2.40;;;;;;;24.08;45.78;98540.78;4974613;28;20196;-57
2021/08/21 06:32:57;;;;;;;3.90;2.00;;;;;;;23.81;46.08;98543.22;4974437;28;20282;-57
2021/08/21 06:35:24;;;;;;;2.57;2.33;;;;;;;23.67;46.15;98538.81;4972878;28;20211;-57
2021/08/21 06:37:50;;;;;;;3.57;2.30;;;;;;;23.62;46.35;98547.38;4972772;28;20702;-57
2021/08/21 06:40:17;;;;;;;2.83;2.50;;;;;;;23.58;46.23;98545.31;4974034;28;20188;-57
2021/08/21 06:42:44;;;;;;;3.63;2.33;;;;;;;23.54;46.31;98540.34;4974150;28;20216;-57
2021/08/21 06:45:17;;;;;;;2.90;2.30;;;;;;;23.52;46.43;98542.38;4958162;28;20219;-57
2021/08/21 06:47:43;;;;;;;3.13;2.40;;;;;;;23.52;46.77;98545.03;4974287;28;20184;-57
2021/08/21 06:50:10;;;;;;;3.40;2.47;;;;;;;23.56;46.80;98547.31;4973914;28;20670;-57
2021/08/21 06:52:37;;;;;;;3.70;2.70;;;;;;;23.57;46.85;98551.66;4974076;28;20263;-57
2021/08/21 06:55:04;;;;;;;4.10;2.90;;;;;;;23.58;47.04;98550.66;4973995;28;20216;-57
2021/08/21 06:57:31;;;;;;;2.00;1.90;;;;;;;23.59;47.04;98547.78;4972511;28;20662;-58
2021/08/21 06:59:57;;;;;;;3.13;2.50;;;;;;;23.62;46.97;98543.91;4974376;28;20223;-58
2021/08/21 07:02:25;;;;;;;2.43;2.23;;;;;;;23.58;47.08;98542.66;4973813;28;20708;-59
2021/08/21 07:04:53;;;;;;;2.97;2.37;;;;;;;23.64;47.07;98544.53;4974033;28;20188;-58
2021/08/21 07:07:19;;;;;;;3.17;2.70;;;;;;;23.64;47.12;98544.53;4973789;28;20188;-59
2021/08/21 07:09:46;;;;;;;2.87;2.50;;;;;;;23.74;46.80;98545.03;4973718;28;20187;-59
2021/08/21 07:12:12;;;;;;;2.57;2.33;;;;;;;23.71;46.96;98537.41;4973854;28;20208;-58
2021/08/21 07:14:39;;;;;;;2.70;2.50;;;;;;;23.68;46.98;98535.97;4973581;28;20211;-60
2021/08/21 07:17:08;;;;;;;2.67;2.47;;;;;;;23.72;47.02;98543.56;4973572;28;20210;-60
2021/08/21 07:19:34;;;;;;;2.30;2.10;;;;;;;23.77;46.89;98549.97;4973631;28;20251;-59
2021/08/21 07:22:01;;;;;;;2.60;2.40;;;;;;;23.79;46.87;98547.94;4973598;28;20706;-59
2021/08/21 07:24:27;;;;;;;2.03;1.93;;;;;;;23.81;46.99;98547.75;4973903;28;20188;-59
2021/08/21 07:26:54;;;;;;;3.03;2.40;;;;;;;23.84;46.84;98549.19;4973901;28;20192;-59
2021/08/21 07:29:21;;;;;;;2.20;2.10;;;;;;;23.87;46.80;98548.78;4973576;28;20192;-59
2021/08/21 07:31:47;;;;;;;2.70;2.50;;;;;;;23.94;46.69;98549.69;4974009;28;20219;-59
2021/08/21 07:34:14;;;;;;;3.10;2.50;;;;;;;23.99;46.54;98546.44;4973834;28;20224;-59
2021/08/21 07:36:40;;;;;;;2.97;2.67;;;;;;;24.01;46.93;98539.88;4975699;28;20207;-59
2021/08/21 07:39:07;;;;;;;3.20;2.90;;;;;;;24.06;46.54;98542.84;4976951;28;20298;-59
2021/08/21 07:41:35;;;;;;;2.93;2.67;;;;;;;24.13;46.46;98539.38;4976968;28;20203;-59
2021/08/21 07:44:03;;;;;;;2.80;2.60;;;;;;;24.12;46.65;98540.38;4976987;28;20187;-59
2021/08/21 07:46:31;;;;;;;2.90;2.70;;;;;;;24.17;46.40;98538.78;4980150;28;20604;-57
2021/08/21 07:48:58;;;;;;;3.10;2.77;;;;;;;24.23;46.17;98547.84;4994726;28;20195;-58
2021/08/21 07:51:24;;;;;;;3.13;2.80;;;;;;;24.32;46.15;98544.00;4977695;28;20623;-59
2021/08/21 07:53:50;;;;;;;3.40;2.73;;;;;;;24.30;46.26;98548.69;4994796;28;20199;-57
2021/08/21 07:56:17;;;;;;;2.83;2.63;;;;;;;24.32;46.18;98543.19;4994808;28;20721;-59
2021/08/21 07:58:44;;;;;;;2.53;2.33;;;;;;;24.37;46.01;98549.56;4995984;28;20298;-59
2021/08/21 08:01:10;;;;;;;2.83;2.53;;;;;;;24.42;45.98;98551.63;4995586;28;20216;-58
2021/08/21 08:03:37;;;;;;;2.77;2.50;;;;;;;24.44;45.90;98557.59;4995978;28;20275;-58
2021/08/21 08:06:03;;;;;;;2.97;2.67;;;;;;;24.46;45.98;98557.41;4995667;28;20190;-58
2021/08/21 08:08:30;;;;;;;2.80;2.60;;;;;;;24.50;46.01;98553.31;4995726;28;20194;-58
2021/08/21 08:10:56;;;;;;;3.03;2.70;;;;;;;24.50;46.07;98555.97;4995065;28;20218;-59
2021/08/21 08:13:23;;;;;;;2.90;2.70;;;;;;;24.47;46.01;98540.38;4994606;28;20207;-58
2021/08/21 08:15:50;;;;;;;3.83;3.00;;;;;;;24.49;46.22;98536.50;4995452;28;20199;-59
2021/08/21 08:18:16;;;;;;;2.70;2.50;;;;;;;24.50;46.05;98540.81;4995533;28;20215;-59
2021/08/21 08:20:43;;;;;;;2.50;2.30;;;;;;;24.55;46.05;98544.72;4995653;28;20191;-59
2021/08/21 08:23:11;;;;;;;3.20;2.57;;;;;;;24.55;45.94;98539.38;4995383;28;20202;-59
2021/08/21 08:25:38;;;;;;;3.97;2.60;;;;;;;24.57;45.96;98546.16;4995457;28;20187;-58
2021/08/21 08:28:05;;;;;;;2.60;2.40;;;;;;;24.63;45.93;98544.56;4994192;28;20192;-59
2021/08/21 08:30:32;;;;;;;2.90;2.60;;;;;;;24.63;45.92;98541.88;4995185;28;20188;-60
2021/08/21 08:32:58;;;;;;;2.53;2.33;;;;;;;24.62;45.98;98545.59;4995295;28;20187;-59
2021/08/21 08:35:25;;;;;;;2.50;2.30;;;;;;;24.62;46.11;98546.38;4995257;28;20238;-59
2021/08/21 08:37:51;;;;;;;3.03;2.83;;;;;;;24.64;46.22;98555.00;4995346;28;20557;-58
2021/08/21 08:40:25;;;;;;;2.70;2.50;;;;;;;24.70;46.24;98548.06;4995263;28;20282;-58
2021/08/21 08:42:52;;;;;;;2.90;2.70;;;;;;;24.73;46.08;98552.19;4995037;28;20194;-59
2021/08/21 08:45:18;;;;;;;2.57;2.37;;;;;;;24.77;46.23;98553.47;4995066;28;20199;-59
2021/08/21 08:47:45;;;;;;;2.80;2.60;;;;;;;24.78;46.08;98555.09;4994160;28;20183;-59
2021/08/21 08:50:13;;;;;;;2.60;2.40;;;;;;;24.82;46.17;98553.66;4993810;28;20191;-59
2021/08/21 08:52:39;;;;;;;2.73;2.53;;;;;;;24.86;46.04;98541.59;4994840;28;20218;-59
2021/08/21 08:55:09;;;;;;;2.47;2.27;;;;;;;24.88;45.94;98544.88;4994991;28;20191;-59
2021/08/21 08:57:38;;;;;;;2.40;2.20;;;;;;;24.90;45.85;98542.84;4975375;28;20239;-58
2021/08/21 09:00:15;;;;;;;3.73;2.40;;;;;;;24.95;46.01;98545.72;4975384;28;20215;-59
2021/08/21 09:02:44;;;;;;;2.80;2.60;;;;;;;24.98;45.74;98543.66;4975392;28;20270;-59
2021/08/21 09:05:13;;;;;;;2.57;2.37;;;;;;;24.98;46.00;98549.00;4990205;28;20899;-59
2021/08/21 09:07:44;;;;;;;2.70;2.50;;;;;;;25.00;45.86;98542.44;4975302;28;20557;-59
2021/08/21 09:10:32;;;;;;;2.60;2.40;;;;;;;25.02;45.82;98544.91;4975153;28;20199;-59
2021/08/21 09:13:05;;;;;;;2.70;2.50;;;;;;;25.02;45.68;98542.25;4975228;28;20183;-59
2021/08/21 09:15:38;;;;;;;2.57;2.37;;;;;;;25.05;45.74;98539.19;4975109;28;20206;-59
2021/08/21 09:18:10;;;;;;;2.43;2.33;;;;;;;25.07;45.79;98542.47;4975112;28;20184;-59
2021/08/21 09:20:44;;;;;;;2.50;2.30;;;;;;;25.08;45.64;98541.44;4973474;28;20180;-59
2021/08/21 09:23:39;;;;;;;2.80;2.60;;;;;;;25.08;45.55;98533.44;4974287;28;20181;-60
2021/08/21 09:26:25;;;;;;;2.87;2.60;;;;;;;25.05;45.66;98544.50;4989779;28;20184;-59
2021/08/21 09:28:56;;;;;;;4.07;2.67;;;;;;;25.09;45.89;98538.56;4975069;28;20192;-59
2021/08/21 09:31:27;;;;;;;2.70;2.50;;;;;;;25.09;45.58;98535.91;4975343;28;20219;-59
2021/08/21 09:34:00;;;;;;;2.80;2.50;;;;;;;25.09;45.59;98530.56;4975082;28;20232;-59
2021/08/21 09:36:35;;;;;;;2.87;2.60;;;;;;;25.16;45.42;98533.22;4975218;28;20188;-59
2021/08/21 09:39:04;;;;;;;2.97;2.73;;;;;;;25.17;45.68;98531.38;4974938;28;20204;-59
2021/08/21 09:41:50;;;;;;;2.70;2.50;;;;;;;25.17;45.72;98526.88;4974852;28;20212;-59
2021/08/21 09:44:31;;;;;;;2.40;2.20;;;;;;;25.15;45.78;98526.22;4989826;28;20647;-59
2021/08/21 09:47:10;;;;;;;2.40;2.20;;;;;;;25.23;45.42;98527.88;4975179;28;20271;-59
2021/08/21 09:49:37;;;;;;;2.37;2.17;;;;;;;25.22;45.41;98529.75;4974827;28;20172;-59
2021/08/21 09:52:11;;;;;;;2.53;2.33;;;;;;;25.20;45.21;98526.47;4974705;28;20587;-59
2021/08/21 09:54:39;;;;;;;2.77;2.13;;;;;;;25.21;45.28;98533.44;4975004;28;20598;-59
2021/08/21 09:57:06;;;;;;;2.60;2.40;;;;;;;25.22;45.58;98526.25;4974639;28;20219;-59
2021/08/21 09:59:43;;;;;;;2.23;2.13;;;;;;;25.28;45.29;98529.97;4974383;28;20204;-59
2021/08/21 10:02:11;;;;;;;2.50;2.30;;;;;;;25.26;45.23;98524.00;4974422;28;20211;-59
2021/08/21 10:04:40;;;;;;;2.70;2.50;;;;;;;25.23;45.35;98520.72;4974722;28;20255;-59
2021/08/21 10:07:09;;;;;;;2.23;2.03;;;;;;;25.29;45.23;98520.91;4974543;28;20196;-58
2021/08/21 10:09:38;;;;;;;2.23;2.13;;;;;;;25.23;45.08;98515.38;4973252;28;20195;-59
2021/08/21 10:12:10;;;;;;;2.40;2.20;;;;;;;25.31;44.97;98517.03;4974355;28;20271;-57
2021/08/21 10:14:49;;;;;;;2.43;2.23;;;;;;;25.28;45.04;98519.28;4973265;28;20255;-59
2021/08/21 10:17:20;;;;;;;2.90;2.20;;;;;;;25.27;45.11;98515.78;4997219;28;20721;-60
2021/08/21 10:19:48;;;;;;;2.23;2.03;;;;;;;25.26;45.07;98511.47;4992919;28;20207;-60
2021/08/21 10:22:16;;;;;;;2.47;2.27;;;;;;;25.27;45.09;98513.13;4991454;28;20203;-59
2021/08/21 10:24:45;;;;;;;2.53;2.33;;;;;;;25.33;44.97;98517.63;4991916;28;20208;-59
2021/08/21 10:27:37;;;;;;;2.30;2.20;;;;;;;25.38;45.07;98523.19;4992360;28;20195;-58
2021/08/21 10:30:20;;;;;;;1.97;1.87;;;;;;;25.32;45.26;98517.84;4994120;28;20171;-59
2021/08/21 10:32:58;;;;;;;2.40;2.20;;;;;;;25.35;45.20;98512.09;4993683;28;20556;-58
2021/08/21 10:35:46;;;;;;;2.30;2.10;;;;;;;25.36;45.08;98513.75;4993537;28;20278;-58
2021/08/21 10:38:28;;;;;;;2.40;2.20;;;;;;;25.35;45.24;98509.44;4993442;28;20184;-59
2021/08/21 10:40:56;;;;;;;2.50;2.30;;;;;;;25.35;45.08;98509.44;4993693;28;20752;-59
2021/08/21 10:43:42;;;;;;;1.87;1.77;;;;;;;25.35;45.00;98504.91;4992221;28;20195;-59
2021/08/21 10:46:09;;;;;;;2.00;1.90;;;;;;;25.35;45.29;98504.91;4993926;28;20634;-59
2021/08/21 10:48:38;;;;;;;2.20;2.00;;;;;;;25.40;44.93;98504.28;4993950;28;20214;-59
2021/08/21 10:51:06;;;;;;;2.57;2.17;;;;;;;25.39;44.99;98497.31;4993500;28;20294;-59
2021/08/21 10:53:35;;;;;;;2.87;2.23;;;;;;;25.37;44.85;98505.50;4993973;28;20219;-60
2021/08/21 10:56:04;;;;;;;2.47;2.23;;;;;;;25.42;45.13;98501.44;4992280;28;20196;-57
2021/08/21 10:58:31;;;;;;;2.23;2.03;;;;;;;25.44;45.02;98502.84;4993407;28;20575;-57
2021/08/21 11:01:06;;;;;;;2.23;2.03;;;;;;;25.46;44.92;98498.13;4993753;28;20264;-57
2021/08/21 11:03:33;;;;;;;2.30;2.10;;;;;;;25.47;44.77;98499.75;4993273;28;20191;-59
2021/08/21 11:06:13;;;;;;;2.63;2.20;;;;;;;25.46;45.11;98503.44;4992242;28;20219;-59
2021/08/21 11:08:40;;;;;;;4.33;2.40;;;;;;;25.48;44.79;98505.97;4991906;28;20536;-59
2021/08/21 11:11:15;;;;;;;2.50;2.30;;;;;;;25.49;44.82;98504.94;4994629;28;20701;-59
2021/08/21 11:13:49;;;;;;;2.17;2.07;;;;;;;25.49;45.04;98500.44;4996077;28;20554;-59
2021/08/21 11:16:20;;;;;;;2.00;1.90;;;;;;;25.49;44.67;98503.09;4997030;28;20183;-59
2021/08/21 11:18:48;;;;;;;2.50;2.20;;;;;;;25.52;44.69;98496.50;4996981;28;20175;-59
2021/08/21 11:21:37;;;;;;;2.23;2.03;;;;;;;25.53;44.97;98497.34;4997190;28;20258;-59
2021/08/21 11:24:27;;;;;;;2.13;2.00;;;;;;;25.52;45.05;98504.53;4996690;28;20180;-59
2021/08/21 11:27:28;;;;;;;2.53;2.33;;;;;;;25.55;45.00;98495.28;4995698;28;20191;-59
2021/08/21 11:30:10;;;;;;;2.47;2.20;;;;;;;25.56;45.03;98497.72;4996825;28;20630;-59
2021/08/21 11:32:59;;;;;;;2.83;2.60;;;;;;;25.60;44.76;98500.81;4997051;28;20641;-59
2021/08/21 11:35:25;;;;;;;3.63;2.90;;;;;;;25.63;44.78;98495.88;4997294;28;20638;-59
2021/08/21 11:37:55;;;;;;;3.17;2.90;;;;;;;25.63;44.53;98500.41;4996656;28;20198;-59
2021/08/21 11:40:30;;;;;;;3.10;2.90;;;;;;;25.64;45.01;98494.84;4996564;28;20211;-59
2021/08/21 11:42:56;;;;;;;3.60;2.83;;;;;;;25.69;44.93;98496.91;4996702;28;20194;-59
2021/08/21 11:45:23;;;;;;;3.13;2.83;;;;;;;25.74;44.64;98499.78;4996969;28;20192;-59
2021/08/21 11:47:51;;;;;;;3.57;3.00;;;;;;;25.79;44.65;98493.81;4997006;28;20195;-61
2021/08/21 11:50:31;;;;;;;3.60;3.30;;;;;;;25.84;44.51;98482.50;4996457;28;20188;-59